sensor_id;sensor_type;location;lat;lon;timestamp;temperature;humidity
12060;DHT22;6091;51.432;6.880;2023-01-16T00:01:56;20.60;38.90
12060;DHT22;6091;51.432;6.880;2023-01-16T00:04:27;20.60;38.90
12060;DHT22;6091;51.432;6.880;2023-01-16T00:06:54;20.60;38.90
12060;DHT22;6091;51.432;6.880;2023-01-16T00:09:21;20.60;38.90
12060;DHT22;6091;51.432;6.880;2023-01-16T00:11:48;20.60;38.90
12060;DHT22;6091;51.432;6.880;2023-01-16T00:14:15;20.60;38.90
12060;DHT22;6091;51.432;6.880;2023-01-16T00:16:42;20.60;38.90
12060;DHT22;6091;51.432;6.880;2023-01-16T00:19:09;20.60;38.90
12060;DHT22;6091;51.432;6.880;2023-01-16T00:21:36;20.60;38.90
12060;DHT22;6091;51.432;6.880;2023-01-16T00:24:03;20.60;38.90
12060;DHT22;6091;51.432;6.880;2023-01-16T00:26:33;20.60;38.90
12060;DHT22;6091;51.432;6.880;2023-01-16T00:29:00;20.60;38.90
12060;DHT22;6091;51.432;6.880;2023-01-16T00:31:28;20.60;38.90
12060;DHT22;6091;51.432;6.880;2023-01-16T00:33:55;20.60;39.00
12060;DHT22;6091;51.432;6.880;2023-01-16T00:36:22;20.60;38.90
12060;DHT22;6091;51.432;6.880;2023-01-16T00:38:49;20.60;38.90
12060;DHT22;6091;51.432;6.880;2023-01-16T00:41:16;20.60;38.90
12060;DHT22;6091;51.432;6.880;2023-01-16T00:43:43;20.60;38.90
12060;DHT22;6091;51.432;6.880;2023-01-16T00:46:10;20.60;38.90
12060;DHT22;6091;51.432;6.880;2023-01-16T00:48:37;20.60;38.90
12060;DHT22;6091;51.432;6.880;2023-01-16T00:51:04;20.60;38.90
12060;DHT22;6091;51.432;6.880;2023-01-16T00:53:32;20.60;38.90
12060;DHT22;6091;51.432;6.880;2023-01-16T00:55:59;20.60;38.90
12060;DHT22;6091;51.432;6.880;2023-01-16T00:58:26;20.60;38.90
12060;DHT22;6091;51.432;6.880;2023-01-16T01:00:52;20.60;38.90
12060;DHT22;6091;51.432;6.880;2023-01-16T01:03:20;20.60;38.90
12060;DHT22;6091;51.432;6.880;2023-01-16T01:05:46;20.50;38.90
12060;DHT22;6091;51.432;6.880;2023-01-16T01:08:13;20.50;38.90
12060;DHT22;6091;51.432;6.880;2023-01-16T01:10:41;20.50;38.90
12060;DHT22;6091;51.432;6.880;2023-01-16T01:13:08;20.50;38.90
12060;DHT22;6091;51.432;6.880;2023-01-16T01:15:36;20.50;39.50
12060;DHT22;6091;51.432;6.880;2023-01-16T01:18:03;20.50;38.90
12060;DHT22;6091;51.432;6.880;2023-01-16T01:20:31;20.50;38.90
12060;DHT22;6091;51.432;6.880;2023-01-16T01:22:58;20.50;38.90
12060;DHT22;6091;51.432;6.880;2023-01-16T01:25:25;20.50;38.90
12060;DHT22;6091;51.432;6.880;2023-01-16T01:27:52;20.50;39.00
12060;DHT22;6091;51.432;6.880;2023-01-16T01:30:19;20.50;38.90
12060;DHT22;6091;51.432;6.880;2023-01-16T01:32:46;20.50;38.90
12060;DHT22;6091;51.432;6.880;2023-01-16T01:35:13;20.50;38.90
12060;DHT22;6091;51.432;6.880;2023-01-16T01:37:40;20.50;38.90
12060;DHT22;6091;51.432;6.880;2023-01-16T01:40:08;20.50;39.00
12060;DHT22;6091;51.432;6.880;2023-01-16T01:42:39;20.50;39.00
12060;DHT22;6091;51.432;6.880;2023-01-16T01:45:30;20.40;38.90
12060;DHT22;6091;51.432;6.880;2023-01-16T01:48:15;20.50;39.00
12060;DHT22;6091;51.432;6.880;2023-01-16T01:50:56;20.50;39.00
12060;DHT22;6091;51.432;6.880;2023-01-16T01:56:27;20.50;39.00
12060;DHT22;6091;51.432;6.880;2023-01-16T01:59:06;20.50;39.00
12060;DHT22;6091;51.432;6.880;2023-01-16T02:01:37;20.40;38.90
12060;DHT22;6091;51.432;6.880;2023-01-16T02:04:17;20.40;38.90
12060;DHT22;6091;51.432;6.880;2023-01-16T02:06:50;20.50;39.10
12060;DHT22;6091;51.432;6.880;2023-01-16T02:09:21;20.40;38.90
12060;DHT22;6091;51.432;6.880;2023-01-16T02:12:14;20.40;38.90
12060;DHT22;6091;51.432;6.880;2023-01-16T02:14:45;20.50;39.00
12060;DHT22;6091;51.432;6.880;2023-01-16T02:17:17;20.40;38.90
12060;DHT22;6091;51.432;6.880;2023-01-16T02:37:55;20.40;39.00
12060;DHT22;6091;51.432;6.880;2023-01-16T02:40:45;20.40;39.00
12060;DHT22;6091;51.432;6.880;2023-01-16T02:43:34;20.40;39.00
12060;DHT22;6091;51.432;6.880;2023-01-16T02:46:19;20.40;39.00
12060;DHT22;6091;51.432;6.880;2023-01-16T02:49:23;20.40;39.00
12060;DHT22;6091;51.432;6.880;2023-01-16T02:52:11;20.40;39.10
12060;DHT22;6091;51.432;6.880;2023-01-16T02:57:21;20.40;39.00
12060;DHT22;6091;51.432;6.880;2023-01-16T02:59:52;20.40;39.10
12060;DHT22;6091;51.432;6.880;2023-01-16T03:02:19;20.40;39.00
12060;DHT22;6091;51.432;6.880;2023-01-16T03:04:48;20.30;39.00
12060;DHT22;6091;51.432;6.880;2023-01-16T03:09:56;20.30;39.00
12060;DHT22;6091;51.432;6.880;2023-01-16T03:18:42;20.40;39.00
12060;DHT22;6091;51.432;6.880;2023-01-16T03:27:55;20.40;39.00
12060;DHT22;6091;51.432;6.880;2023-01-16T03:33:47;20.40;39.00
12060;DHT22;6091;51.432;6.880;2023-01-16T03:36:56;20.40;39.10
12060;DHT22;6091;51.432;6.880;2023-01-16T03:39:42;20.40;39.00
12060;DHT22;6091;51.432;6.880;2023-01-16T03:42:35;20.40;39.10
12060;DHT22;6091;51.432;6.880;2023-01-16T03:45:15;20.40;39.10
12060;DHT22;6091;51.432;6.880;2023-01-16T03:47:52;20.40;39.10
12060;DHT22;6091;51.432;6.880;2023-01-16T03:50:27;20.40;39.10
12060;DHT22;6091;51.432;6.880;2023-01-16T03:52:58;20.30;38.90
12060;DHT22;6091;51.432;6.880;2023-01-16T03:55:41;20.30;39.00
12060;DHT22;6091;51.432;6.880;2023-01-16T03:58:41;19.90;38.70
12060;DHT22;6091;51.432;6.880;2023-01-16T04:01:37;20.30;39.00
12060;DHT22;6091;51.432;6.880;2023-01-16T04:04:25;20.30;39.00
12060;DHT22;6091;51.432;6.880;2023-01-16T04:07:19;20.30;38.90
12060;DHT22;6091;51.432;6.880;2023-01-16T04:09:59;20.30;39.00
12060;DHT22;6091;51.432;6.880;2023-01-16T04:12:53;20.30;39.00
12060;DHT22;6091;51.432;6.880;2023-01-16T04:15:24;20.30;39.00
12060;DHT22;6091;51.432;6.880;2023-01-16T04:17:57;20.30;39.00
12060;DHT22;6091;51.432;6.880;2023-01-16T04:20:25;20.30;39.00
12060;DHT22;6091;51.432;6.880;2023-01-16T04:22:55;20.30;39.00
12060;DHT22;6091;51.432;6.880;2023-01-16T04:25:22;20.30;39.00
12060;DHT22;6091;51.432;6.880;2023-01-16T04:27:50;20.50;39.20
12060;DHT22;6091;51.432;6.880;2023-01-16T04:30:17;20.40;39.10
12060;DHT22;6091;51.432;6.880;2023-01-16T04:32:44;20.30;39.10
12060;DHT22;6091;51.432;6.880;2023-01-16T04:35:11;20.30;39.00
12060;DHT22;6091;51.432;6.880;2023-01-16T04:37:38;20.30;39.00
12060;DHT22;6091;51.432;6.880;2023-01-16T04:40:06;20.30;39.00
12060;DHT22;6091;51.432;6.880;2023-01-16T04:42:35;20.30;39.00
12060;DHT22;6091;51.432;6.880;2023-01-16T04:45:03;20.30;39.00
12060;DHT22;6091;51.432;6.880;2023-01-16T04:47:30;20.30;39.10
12060;DHT22;6091;51.432;6.880;2023-01-16T04:49:57;20.30;39.10
12060;DHT22;6091;51.432;6.880;2023-01-16T04:52:24;20.30;39.10
12060;DHT22;6091;51.432;6.880;2023-01-16T04:54:51;20.30;39.10
12060;DHT22;6091;51.432;6.880;2023-01-16T04:57:19;20.30;39.10
12060;DHT22;6091;51.432;6.880;2023-01-16T04:59:46;20.30;39.10
12060;DHT22;6091;51.432;6.880;2023-01-16T05:02:13;20.30;39.10
12060;DHT22;6091;51.432;6.880;2023-01-16T05:04:40;20.30;39.10
12060;DHT22;6091;51.432;6.880;2023-01-16T05:07:07;20.30;39.10
12060;DHT22;6091;51.432;6.880;2023-01-16T05:09:34;20.30;39.10
12060;DHT22;6091;51.432;6.880;2023-01-16T05:12:01;20.30;39.10
12060;DHT22;6091;51.432;6.880;2023-01-16T05:14:28;20.30;39.10
12060;DHT22;6091;51.432;6.880;2023-01-16T05:16:55;20.30;39.10
12060;DHT22;6091;51.432;6.880;2023-01-16T05:19:25;20.30;39.10
12060;DHT22;6091;51.432;6.880;2023-01-16T05:21:52;20.30;39.10
12060;DHT22;6091;51.432;6.880;2023-01-16T05:24:19;20.30;39.10
12060;DHT22;6091;51.432;6.880;2023-01-16T05:26:48;20.30;39.10
12060;DHT22;6091;51.432;6.880;2023-01-16T05:29:15;20.30;39.10
12060;DHT22;6091;51.432;6.880;2023-01-16T05:31:42;20.30;39.10
12060;DHT22;6091;51.432;6.880;2023-01-16T05:34:10;20.30;39.10
12060;DHT22;6091;51.432;6.880;2023-01-16T05:36:37;20.30;39.10
12060;DHT22;6091;51.432;6.880;2023-01-16T05:39:04;20.20;39.10
12060;DHT22;6091;51.432;6.880;2023-01-16T05:41:31;20.30;39.10
12060;DHT22;6091;51.432;6.880;2023-01-16T05:43:57;20.30;39.20
12060;DHT22;6091;51.432;6.880;2023-01-16T05:46:25;20.20;39.10
12060;DHT22;6091;51.432;6.880;2023-01-16T05:48:52;20.30;39.20
12060;DHT22;6091;51.432;6.880;2023-01-16T05:51:19;20.30;39.20
12060;DHT22;6091;51.432;6.880;2023-01-16T05:53:49;20.20;39.10
12060;DHT22;6091;51.432;6.880;2023-01-16T05:56:21;20.30;39.20
12060;DHT22;6091;51.432;6.880;2023-01-16T05:58:49;20.30;39.20
12060;DHT22;6091;51.432;6.880;2023-01-16T06:01:15;20.30;39.20
12060;DHT22;6091;51.432;6.880;2023-01-16T06:03:42;20.30;39.20
12060;DHT22;6091;51.432;6.880;2023-01-16T06:06:09;20.30;39.20
12060;DHT22;6091;51.432;6.880;2023-01-16T06:08:36;20.30;39.20
12060;DHT22;6091;51.432;6.880;2023-01-16T06:11:03;20.30;39.20
12060;DHT22;6091;51.432;6.880;2023-01-16T06:13:30;20.30;39.20
12060;DHT22;6091;51.432;6.880;2023-01-16T06:15:58;20.30;39.20
12060;DHT22;6091;51.432;6.880;2023-01-16T06:18:25;20.30;39.80
12060;DHT22;6091;51.432;6.880;2023-01-16T06:20:52;20.20;39.10
12060;DHT22;6091;51.432;6.880;2023-01-16T06:23:19;20.30;39.20
12060;DHT22;6091;51.432;6.880;2023-01-16T06:25:48;20.20;39.10
12060;DHT22;6091;51.432;6.880;2023-01-16T06:28:16;20.30;39.20
12060;DHT22;6091;51.432;6.880;2023-01-16T06:30:43;20.30;39.20
12060;DHT22;6091;51.432;6.880;2023-01-16T06:33:10;20.30;39.20
12060;DHT22;6091;51.432;6.880;2023-01-16T06:35:37;20.30;39.20
12060;DHT22;6091;51.432;6.880;2023-01-16T06:38:04;20.30;39.30
12060;DHT22;6091;51.432;6.880;2023-01-16T06:40:31;20.30;39.50
12060;DHT22;6091;51.432;6.880;2023-01-16T06:42:57;20.30;39.60
12060;DHT22;6091;51.432;6.880;2023-01-16T06:45:24;20.30;39.80
12060;DHT22;6091;51.432;6.880;2023-01-16T06:47:53;20.40;40.00
12060;DHT22;6091;51.432;6.880;2023-01-16T06:50:20;20.50;40.10
12060;DHT22;6091;51.432;6.880;2023-01-16T06:52:47;20.60;40.20
12060;DHT22;6091;51.432;6.880;2023-01-16T06:55:15;20.80;40.40
12060;DHT22;6091;51.432;6.880;2023-01-16T06:57:44;20.90;41.00
12060;DHT22;6091;51.432;6.880;2023-01-16T07:00:12;21.00;40.40
12060;DHT22;6091;51.432;6.880;2023-01-16T07:02:40;21.20;40.40
12060;DHT22;6091;51.432;6.880;2023-01-16T07:05:08;21.30;40.30
12060;DHT22;6091;51.432;6.880;2023-01-16T07:07:36;21.50;40.30
12060;DHT22;6091;51.432;6.880;2023-01-16T07:10:04;21.70;40.40
12060;DHT22;6091;51.432;6.880;2023-01-16T07:12:31;21.80;40.30
12060;DHT22;6091;51.432;6.880;2023-01-16T07:14:58;21.90;40.40
12060;DHT22;6091;51.432;6.880;2023-01-16T07:17:43;22.00;40.40
12060;DHT22;6091;51.432;6.880;2023-01-16T07:20:29;22.20;40.40
12060;DHT22;6091;51.432;6.880;2023-01-16T07:23:18;22.30;40.40
12060;DHT22;6091;51.432;6.880;2023-01-16T07:25:49;22.50;40.40
12060;DHT22;6091;51.432;6.880;2023-01-16T07:28:17;22.60;40.50
12060;DHT22;6091;51.432;6.880;2023-01-16T07:30:45;22.70;40.50
12060;DHT22;6091;51.432;6.880;2023-01-16T07:33:14;22.80;40.40
12060;DHT22;6091;51.432;6.880;2023-01-16T07:35:41;22.90;40.30
12060;DHT22;6091;51.432;6.880;2023-01-16T07:38:10;23.10;40.30
12060;DHT22;6091;51.432;6.880;2023-01-16T07:40:37;23.10;40.30
12060;DHT22;6091;51.432;6.880;2023-01-16T07:43:04;23.20;40.30
12060;DHT22;6091;51.432;6.880;2023-01-16T07:45:31;23.30;40.20
12060;DHT22;6091;51.432;6.880;2023-01-16T07:47:58;23.40;40.10
12060;DHT22;6091;51.432;6.880;2023-01-16T07:50:27;23.50;40.10
12060;DHT22;6091;51.432;6.880;2023-01-16T07:52:55;23.60;40.10
12060;DHT22;6091;51.432;6.880;2023-01-16T07:55:22;23.70;40.10
12060;DHT22;6091;51.432;6.880;2023-01-16T07:57:49;23.80;40.00
12060;DHT22;6091;51.432;6.880;2023-01-16T08:00:17;23.80;38.90
12060;DHT22;6091;51.432;6.880;2023-01-16T08:02:44;23.90;38.90
12060;DHT22;6091;51.432;6.880;2023-01-16T08:05:11;23.90;39.00
12060;DHT22;6091;51.432;6.880;2023-01-16T08:07:38;24.00;39.00
12060;DHT22;6091;51.432;6.880;2023-01-16T08:10:05;24.00;39.00
12060;DHT22;6091;51.432;6.880;2023-01-16T08:12:32;24.00;39.00
12060;DHT22;6091;51.432;6.880;2023-01-16T08:14:59;24.00;39.00
12060;DHT22;6091;51.432;6.880;2023-01-16T08:17:26;24.10;39.10
12060;DHT22;6091;51.432;6.880;2023-01-16T08:19:53;24.10;39.00
12060;DHT22;6091;51.432;6.880;2023-01-16T08:22:20;24.10;39.00
12060;DHT22;6091;51.432;6.880;2023-01-16T08:24:47;24.10;38.40
12060;DHT22;6091;51.432;6.880;2023-01-16T08:27:14;24.10;38.90
12060;DHT22;6091;51.432;6.880;2023-01-16T08:29:41;24.20;39.00
12060;DHT22;6091;51.432;6.880;2023-01-16T08:32:08;24.20;38.90
12060;DHT22;6091;51.432;6.880;2023-01-16T08:34:38;24.20;38.50
12060;DHT22;6091;51.432;6.880;2023-01-16T08:37:05;24.30;38.80
12060;DHT22;6091;51.432;6.880;2023-01-16T08:39:33;24.40;38.90
12060;DHT22;6091;51.432;6.880;2023-01-16T08:42:00;24.40;38.80
12060;DHT22;6091;51.432;6.880;2023-01-16T08:44:45;24.40;38.70
12060;DHT22;6091;51.432;6.880;2023-01-16T08:47:31;24.50;38.70
12060;DHT22;6091;51.432;6.880;2023-01-16T08:50:18;24.50;38.80
12060;DHT22;6091;51.432;6.880;2023-01-16T08:53:04;24.50;38.70
12060;DHT22;6091;51.432;6.880;2023-01-16T08:55:35;24.50;38.70
12060;DHT22;6091;51.432;6.880;2023-01-16T08:58:02;24.50;38.70
12060;DHT22;6091;51.432;6.880;2023-01-16T09:00:30;24.50;38.70
12060;DHT22;6091;51.432;6.880;2023-01-16T09:02:57;24.50;38.70
12060;DHT22;6091;51.432;6.880;2023-01-16T09:05:27;24.40;38.50
12060;DHT22;6091;51.432;6.880;2023-01-16T09:07:54;24.40;38.50
12060;DHT22;6091;51.432;6.880;2023-01-16T09:10:21;24.40;38.40
12060;DHT22;6091;51.432;6.880;2023-01-16T09:12:48;24.40;39.00
12060;DHT22;6091;51.432;6.880;2023-01-16T09:15:33;24.40;38.40
12060;DHT22;6091;51.432;6.880;2023-01-16T09:18:00;24.40;38.30
12060;DHT22;6091;51.432;6.880;2023-01-16T09:20:27;24.50;38.30
12060;DHT22;6091;51.432;6.880;2023-01-16T09:23:02;24.40;38.40
12060;DHT22;6091;51.432;6.880;2023-01-16T09:25:32;24.40;38.30
12060;DHT22;6091;51.432;6.880;2023-01-16T09:28:00;24.40;38.40
12060;DHT22;6091;51.432;6.880;2023-01-16T09:30:27;24.40;38.60
12060;DHT22;6091;51.432;6.880;2023-01-16T09:32:54;24.40;38.40
12060;DHT22;6091;51.432;6.880;2023-01-16T09:35:21;24.20;38.30
12060;DHT22;6091;51.432;6.880;2023-01-16T09:37:48;24.40;38.50
12060;DHT22;6091;51.432;6.880;2023-01-16T09:40:18;24.40;38.50
12060;DHT22;6091;51.432;6.880;2023-01-16T09:43:10;24.40;38.50
12060;DHT22;6091;51.432;6.880;2023-01-16T09:46:15;24.40;38.40
12060;DHT22;6091;51.432;6.880;2023-01-16T09:48:56;24.40;38.50
12060;DHT22;6091;51.432;6.880;2023-01-16T09:54:16;24.50;38.40
12060;DHT22;6091;51.432;6.880;2023-01-16T09:57:13;24.50;38.20
12060;DHT22;6091;51.432;6.880;2023-01-16T10:00:01;24.50;38.40
12060;DHT22;6091;51.432;6.880;2023-01-16T10:02:33;24.50;38.40
12060;DHT22;6091;51.432;6.880;2023-01-16T10:05:03;24.50;38.40
12060;DHT22;6091;51.432;6.880;2023-01-16T10:07:42;24.50;38.40
12060;DHT22;6091;51.432;6.880;2023-01-16T10:25:24;24.40;38.40
12060;DHT22;6091;51.432;6.880;2023-01-16T10:28:17;24.40;38.60
12060;DHT22;6091;51.432;6.880;2023-01-16T10:31:02;24.50;38.50
12060;DHT22;6091;51.432;6.880;2023-01-16T10:33:41;24.50;38.40
12060;DHT22;6091;51.432;6.880;2023-01-16T10:36:20;24.50;38.30
12060;DHT22;6091;51.432;6.880;2023-01-16T10:38:54;24.60;38.40
12060;DHT22;6091;51.432;6.880;2023-01-16T10:41:30;24.60;38.30
12060;DHT22;6091;51.432;6.880;2023-01-16T10:44:38;24.60;38.30
12060;DHT22;6091;51.432;6.880;2023-01-16T10:47:29;24.70;38.30
12060;DHT22;6091;51.432;6.880;2023-01-16T10:50:18;24.70;38.30
12060;DHT22;6091;51.432;6.880;2023-01-16T10:53:03;24.70;38.30
12060;DHT22;6091;51.432;6.880;2023-01-16T10:55:33;24.70;38.30
12060;DHT22;6091;51.432;6.880;2023-01-16T10:58:27;24.70;38.30
12060;DHT22;6091;51.432;6.880;2023-01-16T11:01:00;24.70;38.10
12060;DHT22;6091;51.432;6.880;2023-01-16T11:03:39;24.80;38.30
12060;DHT22;6091;51.432;6.880;2023-01-16T11:06:32;24.70;38.10
12060;DHT22;6091;51.432;6.880;2023-01-16T11:09:23;24.70;38.20
12060;DHT22;6091;51.432;6.880;2023-01-16T11:11:54;24.80;38.20
12060;DHT22;6091;51.432;6.880;2023-01-16T11:14:41;24.80;38.30
12060;DHT22;6091;51.432;6.880;2023-01-16T11:17:36;24.80;38.40
12060;DHT22;6091;51.432;6.880;2023-01-16T11:20:31;24.80;38.30
12060;DHT22;6091;51.432;6.880;2023-01-16T11:23:18;24.80;38.30
12060;DHT22;6091;51.432;6.880;2023-01-16T11:25:51;24.90;38.40
12060;DHT22;6091;51.432;6.880;2023-01-16T11:28:23;24.90;38.40
12060;DHT22;6091;51.432;6.880;2023-01-16T11:30:57;24.90;38.40
12060;DHT22;6091;51.432;6.880;2023-01-16T11:33:37;24.80;38.30
12060;DHT22;6091;51.432;6.880;2023-01-16T11:36:11;24.80;38.50
12060;DHT22;6091;51.432;6.880;2023-01-16T11:38:44;24.90;38.50
12060;DHT22;6091;51.432;6.880;2023-01-16T11:41:17;25.00;37.40
12060;DHT22;6091;51.432;6.880;2023-01-16T11:44:20;24.90;36.20
12060;DHT22;6091;51.432;6.880;2023-01-16T11:47:15;25.00;34.60
12060;DHT22;6091;51.432;6.880;2023-01-16T11:49:50;24.90;35.50
12060;DHT22;6091;51.432;6.880;2023-01-16T11:52:21;24.90;35.70
12060;DHT22;6091;51.432;6.880;2023-01-16T11:54:58;24.70;35.90
12060;DHT22;6091;51.432;6.880;2023-01-16T12:09:28;24.60;36.40
12060;DHT22;6091;51.432;6.880;2023-01-16T12:12:23;24.60;36.60
12060;DHT22;6091;51.432;6.880;2023-01-16T12:15:33;24.60;36.60
12060;DHT22;6091;51.432;6.880;2023-01-16T12:21:31;24.60;36.60
12060;DHT22;6091;51.432;6.880;2023-01-16T12:36:01;24.70;34.80
12060;DHT22;6091;51.432;6.880;2023-01-16T12:45:06;24.90;35.40
12060;DHT22;6091;51.432;6.880;2023-01-16T12:48:00;24.90;35.40
12060;DHT22;6091;51.432;6.880;2023-01-16T12:59:16;25.00;35.80
12060;DHT22;6091;51.432;6.880;2023-01-16T13:01:58;25.10;34.50
12060;DHT22;6091;51.432;6.880;2023-01-16T13:04:38;25.10;34.00
12060;DHT22;6091;51.432;6.880;2023-01-16T13:07:15;25.00;34.30
12060;DHT22;6091;51.432;6.880;2023-01-16T13:12:23;25.00;34.70
12060;DHT22;6091;51.432;6.880;2023-01-16T13:15:19;25.00;34.70
12060;DHT22;6091;51.432;6.880;2023-01-16T13:17:52;25.00;34.90
12060;DHT22;6091;51.432;6.880;2023-01-16T13:20:25;25.00;35.10
12060;DHT22;6091;51.432;6.880;2023-01-16T13:23:39;25.00;35.10
12060;DHT22;6091;51.432;6.880;2023-01-16T13:26:15;25.00;34.90
12060;DHT22;6091;51.432;6.880;2023-01-16T13:29:07;25.00;35.40
12060;DHT22;6091;51.432;6.880;2023-01-16T13:31:47;25.00;35.20
12060;DHT22;6091;51.432;6.880;2023-01-16T13:34:29;25.00;35.30
12060;DHT22;6091;51.432;6.880;2023-01-16T13:37:30;25.00;35.30
12060;DHT22;6091;51.432;6.880;2023-01-16T13:40:42;25.00;35.20
12060;DHT22;6091;51.432;6.880;2023-01-16T13:43:32;25.00;35.20
12060;DHT22;6091;51.432;6.880;2023-01-16T13:46:27;25.00;35.30
12060;DHT22;6091;51.432;6.880;2023-01-16T13:49:00;25.00;35.40
12060;DHT22;6091;51.432;6.880;2023-01-16T13:51:29;25.00;35.40
12060;DHT22;6091;51.432;6.880;2023-01-16T13:53:59;25.00;35.50
12060;DHT22;6091;51.432;6.880;2023-01-16T13:56:32;25.00;35.50
12060;DHT22;6091;51.432;6.880;2023-01-16T13:59:02;25.00;35.50
12060;DHT22;6091;51.432;6.880;2023-01-16T14:06:45;24.90;35.40
12060;DHT22;6091;51.432;6.880;2023-01-16T14:10:07;24.90;35.40
12060;DHT22;6091;51.432;6.880;2023-01-16T14:12:59;25.00;35.30
12060;DHT22;6091;51.432;6.880;2023-01-16T14:15:48;24.90;35.40
12060;DHT22;6091;51.432;6.880;2023-01-16T14:18:56;24.90;35.40
12060;DHT22;6091;51.432;6.880;2023-01-16T14:21:43;24.90;35.50
12060;DHT22;6091;51.432;6.880;2023-01-16T14:24:57;24.90;35.50
12060;DHT22;6091;51.432;6.880;2023-01-16T14:27:39;24.90;35.50
12060;DHT22;6091;51.432;6.880;2023-01-16T14:30:17;24.90;35.50
12060;DHT22;6091;51.432;6.880;2023-01-16T14:32:52;24.90;35.60
12060;DHT22;6091;51.432;6.880;2023-01-16T14:35:31;24.80;35.60
12060;DHT22;6091;51.432;6.880;2023-01-16T14:38:23;24.90;35.60
12060;DHT22;6091;51.432;6.880;2023-01-16T14:40:59;24.90;35.70
12060;DHT22;6091;51.432;6.880;2023-01-16T14:55:55;24.90;35.70
12060;DHT22;6091;51.432;6.880;2023-01-16T15:01:20;24.90;35.70
12060;DHT22;6091;51.432;6.880;2023-01-16T15:04:13;24.80;35.60
12060;DHT22;6091;51.432;6.880;2023-01-16T15:06:48;24.90;35.70
12060;DHT22;6091;51.432;6.880;2023-01-16T15:09:20;24.90;35.70
12060;DHT22;6091;51.432;6.880;2023-01-16T15:11:57;24.90;35.80
12060;DHT22;6091;51.432;6.880;2023-01-16T15:14:28;24.90;35.70
12060;DHT22;6091;51.432;6.880;2023-01-16T15:17:09;24.80;35.70
12060;DHT22;6091;51.432;6.880;2023-01-16T15:22:55;24.80;35.80
12060;DHT22;6091;51.432;6.880;2023-01-16T15:25:25;24.90;35.70
12060;DHT22;6091;51.432;6.880;2023-01-16T15:31:39;24.80;35.70
12060;DHT22;6091;51.432;6.880;2023-01-16T15:36:41;24.80;35.70
12060;DHT22;6091;51.432;6.880;2023-01-16T15:42:20;24.80;35.80
12060;DHT22;6091;51.432;6.880;2023-01-16T15:45:28;24.80;35.80
12060;DHT22;6091;51.432;6.880;2023-01-16T15:51:10;24.70;35.70
12060;DHT22;6091;51.432;6.880;2023-01-16T15:53:43;24.70;35.70
12060;DHT22;6091;51.432;6.880;2023-01-16T15:56:20;24.70;35.80
12060;DHT22;6091;51.432;6.880;2023-01-16T15:58:51;24.70;35.80
12060;DHT22;6091;51.432;6.880;2023-01-16T16:01:32;24.70;35.80
12060;DHT22;6091;51.432;6.880;2023-01-16T16:04:02;24.70;35.70
12060;DHT22;6091;51.432;6.880;2023-01-16T16:06:30;24.70;35.30
12060;DHT22;6091;51.432;6.880;2023-01-16T16:09:05;24.70;35.10
12060;DHT22;6091;51.432;6.880;2023-01-16T16:11:38;24.70;35.20
12060;DHT22;6091;51.432;6.880;2023-01-16T16:14:27;24.70;35.30
12060;DHT22;6091;51.432;6.880;2023-01-16T16:20:31;24.70;35.50
12060;DHT22;6091;51.432;6.880;2023-01-16T16:25:57;24.70;35.60
12060;DHT22;6091;51.432;6.880;2023-01-16T16:31:28;24.70;35.70
12060;DHT22;6091;51.432;6.880;2023-01-16T16:36:38;24.70;35.70
12060;DHT22;6091;51.432;6.880;2023-01-16T16:39:27;24.70;35.70
12060;DHT22;6091;51.432;6.880;2023-01-16T16:41:55;24.80;35.80
12060;DHT22;6091;51.432;6.880;2023-01-16T16:44:45;24.70;35.70
12060;DHT22;6091;51.432;6.880;2023-01-16T16:47:25;24.80;35.90
12060;DHT22;6091;51.432;6.880;2023-01-16T16:49:53;24.80;35.90
12060;DHT22;6091;51.432;6.880;2023-01-16T16:52:35;24.80;35.90
12060;DHT22;6091;51.432;6.880;2023-01-16T16:58:21;24.90;36.00
12060;DHT22;6091;51.432;6.880;2023-01-16T17:00:51;24.90;36.00
12060;DHT22;6091;51.432;6.880;2023-01-16T17:03:21;24.90;36.00
12060;DHT22;6091;51.432;6.880;2023-01-16T17:05:50;24.90;36.00
12060;DHT22;6091;51.432;6.880;2023-01-16T17:08:22;24.90;36.00
12060;DHT22;6091;51.432;6.880;2023-01-16T17:10:51;24.90;36.00
12060;DHT22;6091;51.432;6.880;2023-01-16T17:13:19;24.90;35.90
12060;DHT22;6091;51.432;6.880;2023-01-16T17:15:50;24.90;35.90
12060;DHT22;6091;51.432;6.880;2023-01-16T17:18:22;24.90;35.80
12060;DHT22;6091;51.432;6.880;2023-01-16T17:20:50;25.00;35.90
12060;DHT22;6091;51.432;6.880;2023-01-16T17:23:22;24.90;35.80
12060;DHT22;6091;51.432;6.880;2023-01-16T17:25:52;24.90;35.80
12060;DHT22;6091;51.432;6.880;2023-01-16T17:28:19;24.90;35.80
12060;DHT22;6091;51.432;6.880;2023-01-16T17:30:46;24.90;35.80
12060;DHT22;6091;51.432;6.880;2023-01-16T17:33:15;24.90;35.80
12060;DHT22;6091;51.432;6.880;2023-01-16T17:35:48;24.90;35.70
12060;DHT22;6091;51.432;6.880;2023-01-16T17:38:25;24.80;35.60
12060;DHT22;6091;51.432;6.880;2023-01-16T17:40:52;24.80;35.70
12060;DHT22;6091;51.432;6.880;2023-01-16T17:43:21;24.70;35.60
12060;DHT22;6091;51.432;6.880;2023-01-16T17:46:15;24.70;35.60
12060;DHT22;6091;51.432;6.880;2023-01-16T17:48:44;24.70;35.70
12060;DHT22;6091;51.432;6.880;2023-01-16T17:51:11;24.70;35.60
12060;DHT22;6091;51.432;6.880;2023-01-16T17:53:39;24.60;35.60
12060;DHT22;6091;51.432;6.880;2023-01-16T17:56:07;24.60;35.60
12060;DHT22;6091;51.432;6.880;2023-01-16T17:58:39;24.50;35.50
12060;DHT22;6091;51.432;6.880;2023-01-16T18:03:45;24.40;35.60
12060;DHT22;6091;51.432;6.880;2023-01-16T18:06:33;24.40;35.60
12060;DHT22;6091;51.432;6.880;2023-01-16T18:09:02;24.30;35.60
12060;DHT22;6091;51.432;6.880;2023-01-16T18:11:35;24.20;35.50
12060;DHT22;6091;51.432;6.880;2023-01-16T18:14:22;24.20;35.60
12060;DHT22;6091;51.432;6.880;2023-01-16T18:17:12;24.10;35.60
12060;DHT22;6091;51.432;6.880;2023-01-16T18:19:52;24.10;35.70
12060;DHT22;6091;51.432;6.880;2023-01-16T18:22:24;23.90;35.50
12060;DHT22;6091;51.432;6.880;2023-01-16T18:24:53;24.00;35.70
12060;DHT22;6091;51.432;6.880;2023-01-16T18:27:21;23.90;35.70
12060;DHT22;6091;51.432;6.880;2023-01-16T18:29:48;23.80;35.60
12060;DHT22;6091;51.432;6.880;2023-01-16T18:32:16;23.80;35.70
12060;DHT22;6091;51.432;6.880;2023-01-16T18:37:33;23.70;35.80
12060;DHT22;6091;51.432;6.880;2023-01-16T18:40:07;23.70;35.80
12060;DHT22;6091;51.432;6.880;2023-01-16T18:42:56;23.60;35.80
12060;DHT22;6091;51.432;6.880;2023-01-16T18:45:41;23.50;35.70
12060;DHT22;6091;51.432;6.880;2023-01-16T18:48:27;23.50;35.70
12060;DHT22;6091;51.432;6.880;2023-01-16T18:51:15;23.40;35.70
12060;DHT22;6091;51.432;6.880;2023-01-16T18:54:13;23.40;35.80
12060;DHT22;6091;51.432;6.880;2023-01-16T18:57:00;23.30;36.50
12060;DHT22;6091;51.432;6.880;2023-01-16T18:59:46;23.30;35.80
12060;DHT22;6091;51.432;6.880;2023-01-16T19:02:41;23.20;35.80
12060;DHT22;6091;51.432;6.880;2023-01-16T19:05:09;23.20;35.90
12060;DHT22;6091;51.432;6.880;2023-01-16T19:07:40;23.10;35.90
12060;DHT22;6091;51.432;6.880;2023-01-16T19:10:37;23.10;36.00
12060;DHT22;6091;51.432;6.880;2023-01-16T19:13:04;23.10;36.00
12060;DHT22;6091;51.432;6.880;2023-01-16T19:15:35;23.00;35.90